sensor_id;sensor_type;location;lat;lon;timestamp;P1;durP1;ratioP1;P2;durP2;ratioP2
735;SDS011;352;48.626;9.238;2023-03-09T00:02:15;3.37;;;1.77;;
735;SDS011;352;48.626;9.238;2023-03-09T00:04:42;5.33;;;1.80;;
735;SDS011;352;48.626;9.238;2023-03-09T00:07:09;2.67;;;1.70;;
735;SDS011;352;48.626;9.238;2023-03-09T00:09:35;2.40;;;1.87;;
735;SDS011;352;48.626;9.238;2023-03-09T00:12:04;2.80;;;1.47;;
735;SDS011;352;48.626;9.238;2023-03-09T00:14:31;2.10;;;1.33;;
735;SDS011;352;48.626;9.238;2023-03-09T00:16:57;2.67;;;1.80;;
735;SDS011;352;48.626;9.238;2023-03-09T00:19:24;6.43;;;2.30;;
735;SDS011;352;48.626;9.238;2023-03-09T00:21:53;1.43;;;1.33;;
735;SDS011;352;48.626;9.238;2023-03-09T00:24:21;1.60;;;1.30;;
735;SDS011;352;48.626;9.238;2023-03-09T00:26:52;3.70;;;1.70;;
735;SDS011;352;48.626;9.238;2023-03-09T00:29:21;3.07;;;1.60;;
735;SDS011;352;48.626;9.238;2023-03-09T00:31:48;1.80;;;1.40;;
735;SDS011;352;48.626;9.238;2023-03-09T00:34:15;3.80;;;1.50;;
735;SDS011;352;48.626;9.238;2023-03-09T00:36:42;2.10;;;1.20;;
735;SDS011;352;48.626;9.238;2023-03-09T00:39:09;2.87;;;1.87;;
735;SDS011;352;48.626;9.238;2023-03-09T00:41:36;1.63;;;1.40;;
735;SDS011;352;48.626;9.238;2023-03-09T00:44:03;4.03;;;1.50;;
735;SDS011;352;48.626;9.238;2023-03-09T00:46:33;1.10;;;1.00;;
735;SDS011;352;48.626;9.238;2023-03-09T00:49:00;2.80;;;0.90;;
735;SDS011;352;48.626;9.238;2023-03-09T00:51:28;0.77;;;0.77;;
735;SDS011;352;48.626;9.238;2023-03-09T00:53:55;3.13;;;0.70;;
735;SDS011;352;48.626;9.238;2023-03-09T00:56:23;1.23;;;1.00;;
735;SDS011;352;48.626;9.238;2023-03-09T00:58:51;1.43;;;0.90;;
735;SDS011;352;48.626;9.238;2023-03-09T01:01:18;2.20;;;0.90;;
735;SDS011;352;48.626;9.238;2023-03-09T01:03:47;2.70;;;1.00;;
735;SDS011;352;48.626;9.238;2023-03-09T01:06:14;0.80;;;0.80;;
735;SDS011;352;48.626;9.238;2023-03-09T01:08:41;0.70;;;0.70;;
735;SDS011;352;48.626;9.238;2023-03-09T01:11:11;0.80;;;0.80;;
735;SDS011;352;48.626;9.238;2023-03-09T01:13:38;0.70;;;0.70;;
735;SDS011;352;48.626;9.238;2023-03-09T01:16:06;1.23;;;0.90;;
735;SDS011;352;48.626;9.238;2023-03-09T01:18:33;1.00;;;0.90;;
735;SDS011;352;48.626;9.238;2023-03-09T01:21:01;1.17;;;0.90;;
735;SDS011;352;48.626;9.238;2023-03-09T01:23:30;0.70;;;0.70;;
735;SDS011;352;48.626;9.238;2023-03-09T01:25:57;1.73;;;0.97;;
735;SDS011;352;48.626;9.238;2023-03-09T01:28:23;2.30;;;0.90;;
735;SDS011;352;48.626;9.238;2023-03-09T01:30:50;2.23;;;0.83;;
735;SDS011;352;48.626;9.238;2023-03-09T01:33:17;1.10;;;0.70;;
735;SDS011;352;48.626;9.238;2023-03-09T01:35:44;0.67;;;0.60;;
735;SDS011;352;48.626;9.238;2023-03-09T01:38:12;0.65;;;0.60;;
735;SDS011;352;48.626;9.238;2023-03-09T01:40:38;0.80;;;0.80;;
735;SDS011;352;48.626;9.238;2023-03-09T01:43:23;0.95;;;0.80;;
735;SDS011;352;48.626;9.238;2023-03-09T01:49:05;0.70;;;0.70;;
735;SDS011;352;48.626;9.238;2023-03-09T01:51:37;0.80;;;0.80;;
735;SDS011;352;48.626;9.238;2023-03-09T01:54:11;1.95;;;0.80;;
735;SDS011;352;48.626;9.238;2023-03-09T01:56:42;0.80;;;0.80;;
735;SDS011;352;48.626;9.238;2023-03-09T01:59:11;1.10;;;1.00;;
735;SDS011;352;48.626;9.238;2023-03-09T02:01:39;1.25;;;0.70;;
735;SDS011;352;48.626;9.238;2023-03-09T02:04:08;1.58;;;0.80;;
735;SDS011;352;48.626;9.238;2023-03-09T02:06:38;0.70;;;0.70;;
735;SDS011;352;48.626;9.238;2023-03-09T02:09:06;1.57;;;0.70;;
735;SDS011;352;48.626;9.238;2023-03-09T02:11:40;0.88;;;0.82;;
735;SDS011;352;48.626;9.238;2023-03-09T02:14:08;3.20;;;1.30;;
735;SDS011;352;48.626;9.238;2023-03-09T02:16:35;0.93;;;0.70;;
735;SDS011;352;48.626;9.238;2023-03-09T02:19:01;0.90;;;0.90;;
735;SDS011;352;48.626;9.238;2023-03-09T02:21:32;0.80;;;0.80;;
735;SDS011;352;48.626;9.238;2023-03-09T02:24:06;0.80;;;0.70;;
735;SDS011;352;48.626;9.238;2023-03-09T02:26:40;0.63;;;0.63;;
735;SDS011;352;48.626;9.238;2023-03-09T02:29:12;0.82;;;0.82;;
735;SDS011;352;48.626;9.238;2023-03-09T02:31:40;0.80;;;0.80;;
735;SDS011;352;48.626;9.238;2023-03-09T02:34:06;0.75;;;0.75;;
735;SDS011;352;48.626;9.238;2023-03-09T02:36:34;1.17;;;0.90;;
735;SDS011;352;48.626;9.238;2023-03-09T02:39:02;0.77;;;0.70;;
735;SDS011;352;48.626;9.238;2023-03-09T02:41:33;0.80;;;0.80;;
735;SDS011;352;48.626;9.238;2023-03-09T02:44:00;0.93;;;0.80;;
735;SDS011;352;48.626;9.238;2023-03-09T02:46:29;1.13;;;0.90;;
735;SDS011;352;48.626;9.238;2023-03-09T02:48:56;0.90;;;0.80;;
735;SDS011;352;48.626;9.238;2023-03-09T02:51:23;0.70;;;0.70;;
735;SDS011;352;48.626;9.238;2023-03-09T02:53:49;0.50;;;0.50;;
735;SDS011;352;48.626;9.238;2023-03-09T02:56:16;0.70;;;0.60;;
735;SDS011;352;48.626;9.238;2023-03-09T02:58:43;0.70;;;0.70;;
735;SDS011;352;48.626;9.238;2023-03-09T03:01:09;0.60;;;0.60;;
735;SDS011;352;48.626;9.238;2023-03-09T03:03:37;1.63;;;0.73;;
735;SDS011;352;48.626;9.238;2023-03-09T03:06:04;0.60;;;0.60;;
735;SDS011;352;48.626;9.238;2023-03-09T03:08:31;0.60;;;0.60;;
735;SDS011;352;48.626;9.238;2023-03-09T03:11:00;1.02;;;0.60;;
735;SDS011;352;48.626;9.238;2023-03-09T03:13:26;0.60;;;0.60;;
735;SDS011;352;48.626;9.238;2023-03-09T03:15:56;1.13;;;0.75;;
735;SDS011;352;48.626;9.238;2023-03-09T03:18:24;1.33;;;1.00;;
735;SDS011;352;48.626;9.238;2023-03-09T03:20:52;0.70;;;0.70;;
735;SDS011;352;48.626;9.238;2023-03-09T03:23:19;1.10;;;1.00;;
735;SDS011;352;48.626;9.238;2023-03-09T03:25:46;1.03;;;0.80;;
735;SDS011;352;48.626;9.238;2023-03-09T03:28:14;0.88;;;0.88;;
735;SDS011;352;48.626;9.238;2023-03-09T03:30:41;0.80;;;0.80;;
735;SDS011;352;48.626;9.238;2023-03-09T03:33:07;0.80;;;0.80;;
735;SDS011;352;48.626;9.238;2023-03-09T03:35:34;1.15;;;1.05;;
735;SDS011;352;48.626;9.238;2023-03-09T03:38:02;1.23;;;1.13;;
735;SDS011;352;48.626;9.238;2023-03-09T03:40:29;1.33;;;0.90;;
735;SDS011;352;48.626;9.238;2023-03-09T03:42:55;1.88;;;1.02;;
735;SDS011;352;48.626;9.238;2023-03-09T03:45:22;1.02;;;1.02;;
735;SDS011;352;48.626;9.238;2023-03-09T03:47:50;1.00;;;0.90;;
735;SDS011;352;48.626;9.238;2023-03-09T03:50:17;1.23;;;1.10;;
735;SDS011;352;48.626;9.238;2023-03-09T03:52:44;0.80;;;0.80;;
735;SDS011;352;48.626;9.238;2023-03-09T03:55:12;0.80;;;0.80;;
735;SDS011;352;48.626;9.238;2023-03-09T03:57:38;1.92;;;0.90;;
735;SDS011;352;48.626;9.238;2023-03-09T04:00:06;1.02;;;0.80;;
735;SDS011;352;48.626;9.238;2023-03-09T04:02:34;0.80;;;0.65;;
735;SDS011;352;48.626;9.238;2023-03-09T04:05:01;1.20;;;1.10;;
735;SDS011;352;48.626;9.238;2023-03-09T04:07:28;2.80;;;0.80;;
735;SDS011;352;48.626;9.238;2023-03-09T04:09:55;1.00;;;0.90;;
735;SDS011;352;48.626;9.238;2023-03-09T04:12:23;1.20;;;0.80;;
735;SDS011;352;48.626;9.238;2023-03-09T04:14:50;2.45;;;0.88;;
735;SDS011;352;48.626;9.238;2023-03-09T04:17:16;1.25;;;0.90;;
735;SDS011;352;48.626;9.238;2023-03-09T04:19:43;2.42;;;1.25;;
735;SDS011;352;48.626;9.238;2023-03-09T04:22:10;0.70;;;0.70;;
735;SDS011;352;48.626;9.238;2023-03-09T04:24:36;0.85;;;0.80;;
735;SDS011;352;48.626;9.238;2023-03-09T04:27:03;1.05;;;0.90;;
735;SDS011;352;48.626;9.238;2023-03-09T04:29:32;0.75;;;0.75;;
735;SDS011;352;48.626;9.238;2023-03-09T04:31:59;3.42;;;1.05;;
735;SDS011;352;48.626;9.238;2023-03-09T04:34:25;1.42;;;0.88;;
735;SDS011;352;48.626;9.238;2023-03-09T04:36:52;3.00;;;0.97;;
735;SDS011;352;48.626;9.238;2023-03-09T04:39:20;1.60;;;0.77;;
735;SDS011;352;48.626;9.238;2023-03-09T04:41:47;4.53;;;1.10;;
735;SDS011;352;48.626;9.238;2023-03-09T04:44:13;2.03;;;1.13;;
735;SDS011;352;48.626;9.238;2023-03-09T04:46:41;1.75;;;1.25;;
735;SDS011;352;48.626;9.238;2023-03-09T04:49:08;4.45;;;1.30;;
735;SDS011;352;48.626;9.238;2023-03-09T04:51:35;1.45;;;1.30;;
735;SDS011;352;48.626;9.238;2023-03-09T04:54:02;1.92;;;1.33;;
735;SDS011;352;48.626;9.238;2023-03-09T04:56:29;3.47;;;1.38;;
735;SDS011;352;48.626;9.238;2023-03-09T04:58:56;1.35;;;1.05;;
735;SDS011;352;48.626;9.238;2023-03-09T05:01:22;4.68;;;1.13;;
735;SDS011;352;48.626;9.238;2023-03-09T05:03:50;5.35;;;1.83;;
735;SDS011;352;48.626;9.238;2023-03-09T05:06:17;4.93;;;1.60;;
735;SDS011;352;48.626;9.238;2023-03-09T05:08:44;9.35;;;2.03;;
735;SDS011;352;48.626;9.238;2023-03-09T05:11:10;3.15;;;1.50;;
735;SDS011;352;48.626;9.238;2023-03-09T05:13:37;2.30;;;1.77;;
735;SDS011;352;48.626;9.238;2023-03-09T05:16:04;3.92;;;1.85;;
735;SDS011;352;48.626;9.238;2023-03-09T05:18:32;4.00;;;2.05;;
735;SDS011;352;48.626;9.238;2023-03-09T05:21:03;4.35;;;1.67;;
735;SDS011;352;48.626;9.238;2023-03-09T05:23:30;5.70;;;2.33;;
735;SDS011;352;48.626;9.238;2023-03-09T05:25:57;4.70;;;1.98;;
735;SDS011;352;48.626;9.238;2023-03-09T05:28:24;4.07;;;1.75;;
735;SDS011;352;48.626;9.238;2023-03-09T05:30:51;3.15;;;1.85;;
735;SDS011;352;48.626;9.238;2023-03-09T05:33:18;3.35;;;2.03;;
735;SDS011;352;48.626;9.238;2023-03-09T05:35:44;3.20;;;1.92;;
735;SDS011;352;48.626;9.238;2023-03-09T05:38:12;1.83;;;1.70;;
735;SDS011;352;48.626;9.238;2023-03-09T05:40:39;6.47;;;2.22;;
735;SDS011;352;48.626;9.238;2023-03-09T05:43:06;4.38;;;2.28;;
735;SDS011;352;48.626;9.238;2023-03-09T05:45:32;2.97;;;2.15;;
735;SDS011;352;48.626;9.238;2023-03-09T05:47:59;11.82;;;2.60;;
735;SDS011;352;48.626;9.238;2023-03-09T05:50:26;7.13;;;2.25;;
735;SDS011;352;48.626;9.238;2023-03-09T05:52:52;5.68;;;2.80;;
735;SDS011;352;48.626;9.238;2023-03-09T05:55:20;4.13;;;2.00;;
735;SDS011;352;48.626;9.238;2023-03-09T05:57:47;4.32;;;2.72;;
735;SDS011;352;48.626;9.238;2023-03-09T06:00:14;5.70;;;3.35;;
735;SDS011;352;48.626;9.238;2023-03-09T06:02:41;2.63;;;2.42;;
735;SDS011;352;48.626;9.238;2023-03-09T06:05:08;3.72;;;2.90;;
735;SDS011;352;48.626;9.238;2023-03-09T06:07:35;7.10;;;2.65;;
735;SDS011;352;48.626;9.238;2023-03-09T06:10:02;6.38;;;2.90;;
735;SDS011;352;48.626;9.238;2023-03-09T06:12:30;8.10;;;3.45;;
735;SDS011;352;48.626;9.238;2023-03-09T06:14:57;7.78;;;2.95;;
735;SDS011;352;48.626;9.238;2023-03-09T06:17:23;3.85;;;2.95;;
735;SDS011;352;48.626;9.238;2023-03-09T06:19:51;7.78;;;2.40;;
735;SDS011;352;48.626;9.238;2023-03-09T06:22:18;2.40;;;2.20;;
735;SDS011;352;48.626;9.238;2023-03-09T06:24:45;3.13;;;2.70;;
735;SDS011;352;48.626;9.238;2023-03-09T06:27:12;5.57;;;2.63;;
735;SDS011;352;48.626;9.238;2023-03-09T06:29:40;6.70;;;3.45;;
735;SDS011;352;48.626;9.238;2023-03-09T06:32:06;6.70;;;2.80;;
735;SDS011;352;48.626;9.238;2023-03-09T06:34:33;4.78;;;3.35;;
735;SDS011;352;48.626;9.238;2023-03-09T06:37:00;3.70;;;3.40;;
735;SDS011;352;48.626;9.238;2023-03-09T06:39:28;6.57;;;3.10;;
735;SDS011;352;48.626;9.238;2023-03-09T06:41:54;5.80;;;2.37;;
735;SDS011;352;48.626;9.238;2023-03-09T06:44:21;6.57;;;2.60;;
735;SDS011;352;48.626;9.238;2023-03-09T06:46:49;5.90;;;2.58;;
735;SDS011;352;48.626;9.238;2023-03-09T06:49:16;4.22;;;2.33;;
735;SDS011;352;48.626;9.238;2023-03-09T06:51:42;4.57;;;2.63;;
735;SDS011;352;48.626;9.238;2023-03-09T06:54:09;3.40;;;2.43;;
735;SDS011;352;48.626;9.238;2023-03-09T06:56:36;7.30;;;2.40;;
735;SDS011;352;48.626;9.238;2023-03-09T06:59:02;8.20;;;2.67;;
735;SDS011;352;48.626;9.238;2023-03-09T07:01:29;4.60;;;2.33;;
735;SDS011;352;48.626;9.238;2023-03-09T07:03:58;4.53;;;2.10;;
735;SDS011;352;48.626;9.238;2023-03-09T07:06:24;5.60;;;2.43;;
735;SDS011;352;48.626;9.238;2023-03-09T07:08:51;3.05;;;1.95;;
735;SDS011;352;48.626;9.238;2023-03-09T07:11:18;2.15;;;1.95;;
735;SDS011;352;48.626;9.238;2023-03-09T07:13:45;5.63;;;2.70;;
735;SDS011;352;48.626;9.238;2023-03-09T07:16:12;4.63;;;2.17;;
735;SDS011;352;48.626;9.238;2023-03-09T07:18:38;3.40;;;2.13;;
735;SDS011;352;48.626;9.238;2023-03-09T07:21:08;2.50;;;1.80;;
735;SDS011;352;48.626;9.238;2023-03-09T07:23:36;6.30;;;2.30;;
735;SDS011;352;48.626;9.238;2023-03-09T07:26:03;3.03;;;1.83;;
735;SDS011;352;48.626;9.238;2023-03-09T07:28:30;10.80;;;2.20;;
735;SDS011;352;48.626;9.238;2023-03-09T07:30:57;6.75;;;2.63;;
735;SDS011;352;48.626;9.238;2023-03-09T07:33:24;4.70;;;2.33;;
735;SDS011;352;48.626;9.238;2023-03-09T07:35:51;4.03;;;1.70;;
735;SDS011;352;48.626;9.238;2023-03-09T07:38:19;2.70;;;1.80;;
735;SDS011;352;48.626;9.238;2023-03-09T07:40:46;4.00;;;1.90;;
735;SDS011;352;48.626;9.238;2023-03-09T07:43:12;4.47;;;1.47;;
735;SDS011;352;48.626;9.238;2023-03-09T07:45:39;6.20;;;1.70;;
735;SDS011;352;48.626;9.238;2023-03-09T07:48:06;3.60;;;1.90;;
735;SDS011;352;48.626;9.238;2023-03-09T07:50:33;2.17;;;1.40;;
735;SDS011;352;48.626;9.238;2023-03-09T07:53:00;4.87;;;2.40;;
735;SDS011;352;48.626;9.238;2023-03-09T07:55:28;5.07;;;1.90;;
735;SDS011;352;48.626;9.238;2023-03-09T07:57:59;4.40;;;2.30;;
735;SDS011;352;48.626;9.238;2023-03-09T08:00:26;3.57;;;2.10;;
735;SDS011;352;48.626;9.238;2023-03-09T08:02:53;3.60;;;1.60;;
735;SDS011;352;48.626;9.238;2023-03-09T08:05:21;3.87;;;1.70;;
735;SDS011;352;48.626;9.238;2023-03-09T08:07:48;4.80;;;1.93;;
735;SDS011;352;48.626;9.238;2023-03-09T08:10:16;1.90;;;1.77;;
735;SDS011;352;48.626;9.238;2023-03-09T08:12:47;2.07;;;1.60;;
735;SDS011;352;48.626;9.238;2023-03-09T08:15:15;3.03;;;2.00;;
735;SDS011;352;48.626;9.238;2023-03-09T08:17:43;2.07;;;1.80;;
735;SDS011;352;48.626;9.238;2023-03-09T08:20:10;1.87;;;1.70;;
735;SDS011;352;48.626;9.238;2023-03-09T08:22:37;1.73;;;1.43;;
735;SDS011;352;48.626;9.238;2023-03-09T08:25:04;5.60;;;1.50;;
735;SDS011;352;48.626;9.238;2023-03-09T08:27:36;4.43;;;1.70;;
735;SDS011;352;48.626;9.238;2023-03-09T08:30:05;3.13;;;1.40;;
735;SDS011;352;48.626;9.238;2023-03-09T08:32:33;3.43;;;1.60;;
735;SDS011;352;48.626;9.238;2023-03-09T08:35:00;2.33;;;1.70;;
735;SDS011;352;48.626;9.238;2023-03-09T08:37:26;2.13;;;1.30;;
735;SDS011;352;48.626;9.238;2023-03-09T08:39:53;2.60;;;1.20;;
735;SDS011;352;48.626;9.238;2023-03-09T08:42:20;2.70;;;1.63;;
735;SDS011;352;48.626;9.238;2023-03-09T08:44:47;4.10;;;1.80;;
735;SDS011;352;48.626;9.238;2023-03-09T08:47:15;3.63;;;2.10;;
735;SDS011;352;48.626;9.238;2023-03-09T08:49:41;2.17;;;1.40;;
735;SDS011;352;48.626;9.238;2023-03-09T08:52:08;2.27;;;1.80;;
735;SDS011;352;48.626;9.238;2023-03-09T08:54:35;2.50;;;1.53;;
735;SDS011;352;48.626;9.238;2023-03-09T08:57:02;2.10;;;1.30;;
735;SDS011;352;48.626;9.238;2023-03-09T08:59:29;2.17;;;1.20;;
735;SDS011;352;48.626;9.238;2023-03-09T09:01:56;1.90;;;1.70;;
735;SDS011;352;48.626;9.238;2023-03-09T09:04:25;3.57;;;1.70;;
735;SDS011;352;48.626;9.238;2023-03-09T09:06:51;1.93;;;1.20;;
735;SDS011;352;48.626;9.238;2023-03-09T09:09:18;3.90;;;1.40;;
735;SDS011;352;48.626;9.238;2023-03-09T09:11:45;5.00;;;1.63;;
735;SDS011;352;48.626;9.238;2023-03-09T09:14:12;2.20;;;1.20;;
735;SDS011;352;48.626;9.238;2023-03-09T09:16:40;3.07;;;1.33;;
735;SDS011;352;48.626;9.238;2023-03-09T09:19:07;3.53;;;1.30;;
735;SDS011;352;48.626;9.238;2023-03-09T09:21:35;3.43;;;1.53;;
735;SDS011;352;48.626;9.238;2023-03-09T09:24:03;2.63;;;1.27;;
735;SDS011;352;48.626;9.238;2023-03-09T09:26:30;7.50;;;1.60;;
735;SDS011;352;48.626;9.238;2023-03-09T09:28:57;2.60;;;1.43;;
735;SDS011;352;48.626;9.238;2023-03-09T09:31:26;1.70;;;1.13;;
735;SDS011;352;48.626;9.238;2023-03-09T09:33:53;1.00;;;0.90;;
735;SDS011;352;48.626;9.238;2023-03-09T09:36:21;1.23;;;1.10;;
735;SDS011;352;48.626;9.238;2023-03-09T09:38:51;2.23;;;1.07;;
735;SDS011;352;48.626;9.238;2023-03-09T09:41:19;1.57;;;1.10;;
735;SDS011;352;48.626;9.238;2023-03-09T09:43:52;3.50;;;1.30;;
735;SDS011;352;48.626;9.238;2023-03-09T09:46:22;2.60;;;1.33;;
735;SDS011;352;48.626;9.238;2023-03-09T09:48:49;2.20;;;1.30;;
735;SDS011;352;48.626;9.238;2023-03-09T09:54:10;4.70;;;1.50;;
735;SDS011;352;48.626;9.238;2023-03-09T09:56:43;2.03;;;1.27;;
735;SDS011;352;48.626;9.238;2023-03-09T09:59:14;1.77;;;1.07;;
735;SDS011;352;48.626;9.238;2023-03-09T10:01:46;3.93;;;1.23;;
735;SDS011;352;48.626;9.238;2023-03-09T10:04:18;1.70;;;1.10;;
735;SDS011;352;48.626;9.238;2023-03-09T10:06:50;1.53;;;1.40;;
735;SDS011;352;48.626;9.238;2023-03-09T10:09:21;2.40;;;1.30;;
735;SDS011;352;48.626;9.238;2023-03-09T10:11:51;1.87;;;1.30;;
735;SDS011;352;48.626;9.238;2023-03-09T10:14:22;1.67;;;1.20;;
735;SDS011;352;48.626;9.238;2023-03-09T10:16:54;1.63;;;1.40;;
735;SDS011;352;48.626;9.238;2023-03-09T10:19:26;2.60;;;1.20;;
735;SDS011;352;48.626;9.238;2023-03-09T10:21:56;2.93;;;1.27;;
735;SDS011;352;48.626;9.238;2023-03-09T10:24:27;1.20;;;1.10;;
735;SDS011;352;48.626;9.238;2023-03-09T10:26:57;4.10;;;1.40;;
735;SDS011;352;48.626;9.238;2023-03-09T10:29:29;1.30;;;1.20;;
735;SDS011;352;48.626;9.238;2023-03-09T10:32:06;1.90;;;1.43;;
735;SDS011;352;48.626;9.238;2023-03-09T10:34:43;2.97;;;1.43;;
735;SDS011;352;48.626;9.238;2023-03-09T10:37:20;2.97;;;1.60;;
735;SDS011;352;48.626;9.238;2023-03-09T10:39:51;1.70;;;1.60;;
735;SDS011;352;48.626;9.238;2023-03-09T10:42:18;3.53;;;1.50;;
735;SDS011;352;48.626;9.238;2023-03-09T10:44:50;3.13;;;1.60;;
735;SDS011;352;48.626;9.238;2023-03-09T10:47:24;1.90;;;1.43;;
735;SDS011;352;48.626;9.238;2023-03-09T10:50:08;3.30;;;2.30;;
735;SDS011;352;48.626;9.238;2023-03-09T10:52:36;3.63;;;1.50;;
735;SDS011;352;48.626;9.238;2023-03-09T10:57:58;2.10;;;1.70;;
735;SDS011;352;48.626;9.238;2023-03-09T11:00:26;1.30;;;1.20;;
735;SDS011;352;48.626;9.238;2023-03-09T11:02:54;3.00;;;1.80;;
735;SDS011;352;48.626;9.238;2023-03-09T11:05:24;6.03;;;1.97;;
735;SDS011;352;48.626;9.238;2023-03-09T11:07:53;1.97;;;1.73;;
735;SDS011;352;48.626;9.238;2023-03-09T11:10:22;2.03;;;1.90;;
735;SDS011;352;48.626;9.238;2023-03-09T11:12:52;3.63;;;1.93;;
735;SDS011;352;48.626;9.238;2023-03-09T11:15:23;5.60;;;2.10;;
735;SDS011;352;48.626;9.238;2023-03-09T11:17:53;2.83;;;1.97;;
735;SDS011;352;48.626;9.238;2023-03-09T11:20:28;2.63;;;2.03;;
735;SDS011;352;48.626;9.238;2023-03-09T11:23:01;2.40;;;2.20;;
735;SDS011;352;48.626;9.238;2023-03-09T11:25:55;4.47;;;2.43;;
735;SDS011;352;48.626;9.238;2023-03-09T11:28:30;3.33;;;2.30;;
735;SDS011;352;48.626;9.238;2023-03-09T11:31:08;4.43;;;2.60;;
735;SDS011;352;48.626;9.238;2023-03-09T11:33:38;2.43;;;2.23;;
735;SDS011;352;48.626;9.238;2023-03-09T11:36:07;6.80;;;2.40;;
735;SDS011;352;48.626;9.238;2023-03-09T11:38:37;2.87;;;1.80;;
735;SDS011;352;48.626;9.238;2023-03-09T11:41:08;3.27;;;2.97;;
735;SDS011;352;48.626;9.238;2023-03-09T11:43:45;2.93;;;2.33;;
735;SDS011;352;48.626;9.238;2023-03-09T11:46:16;6.60;;;2.27;;
735;SDS011;352;48.626;9.238;2023-03-09T11:48:45;4.80;;;2.47;;
735;SDS011;352;48.626;9.238;2023-03-09T11:51:15;3.53;;;2.40;;
735;SDS011;352;48.626;9.238;2023-03-09T11:53:48;4.37;;;2.30;;
735;SDS011;352;48.626;9.238;2023-03-09T11:56:20;1.87;;;1.63;;
735;SDS011;352;48.626;9.238;2023-03-09T11:58:54;5.43;;;2.53;;
735;SDS011;352;48.626;9.238;2023-03-09T12:01:27;4.93;;;2.57;;
735;SDS011;352;48.626;9.238;2023-03-09T12:03:58;2.10;;;2.00;;
735;SDS011;352;48.626;9.238;2023-03-09T12:06:30;2.23;;;2.03;;
735;SDS011;352;48.626;9.238;2023-03-09T12:09:02;3.47;;;2.33;;
735;SDS011;352;48.626;9.238;2023-03-09T12:11:33;5.17;;;2.60;;
735;SDS011;352;48.626;9.238;2023-03-09T12:14:07;3.57;;;2.20;;
735;SDS011;352;48.626;9.238;2023-03-09T12:16:44;3.40;;;2.50;;
735;SDS011;352;48.626;9.238;2023-03-09T12:19:17;3.33;;;2.40;;
735;SDS011;352;48.626;9.238;2023-03-09T12:21:47;2.60;;;2.10;;
735;SDS011;352;48.626;9.238;2023-03-09T12:24:27;5.17;;;2.30;;
735;SDS011;352;48.626;9.238;2023-03-09T12:26:59;2.23;;;2.03;;
735;SDS011;352;48.626;9.238;2023-03-09T12:29:38;4.67;;;2.47;;
735;SDS011;352;48.626;9.238;2023-03-09T12:32:33;3.17;;;2.30;;
735;SDS011;352;48.626;9.238;2023-03-09T12:35:04;3.90;;;2.17;;
735;SDS011;352;48.626;9.238;2023-03-09T12:37:51;3.17;;;2.20;;
735;SDS011;352;48.626;9.238;2023-03-09T12:40:21;2.13;;;1.77;;
735;SDS011;352;48.626;9.238;2023-03-09T12:42:57;4.00;;;2.10;;
735;SDS011;352;48.626;9.238;2023-03-09T12:49:34;2.87;;;2.30;;
735;SDS011;352;48.626;9.238;2023-03-09T12:52:11;5.90;;;2.43;;
735;SDS011;352;48.626;9.238;2023-03-09T12:54:59;2.50;;;2.20;;
735;SDS011;352;48.626;9.238;2023-03-09T12:57:29;2.77;;;2.00;;
735;SDS011;352;48.626;9.238;2023-03-09T13:00:10;5.77;;;2.40;;
735;SDS011;352;48.626;9.238;2023-03-09T13:02:50;5.17;;;2.50;;
735;SDS011;352;48.626;9.238;2023-03-09T13:05:21;6.10;;;2.57;;
735;SDS011;352;48.626;9.238;2023-03-09T13:07:54;4.00;;;2.20;;
735;SDS011;352;48.626;9.238;2023-03-09T13:10:26;4.70;;;2.50;;
735;SDS011;352;48.626;9.238;2023-03-09T13:12:56;2.73;;;2.17;;
735;SDS011;352;48.626;9.238;2023-03-09T13:15:38;2.80;;;2.20;;
735;SDS011;352;48.626;9.238;2023-03-09T13:18:24;5.73;;;2.27;;
735;SDS011;352;48.626;9.238;2023-03-09T13:20:52;3.07;;;2.03;;
735;SDS011;352;48.626;9.238;2023-03-09T13:23:20;2.90;;;1.90;;
735;SDS011;352;48.626;9.238;2023-03-09T13:25:50;2.37;;;1.80;;
735;SDS011;352;48.626;9.238;2023-03-09T13:28:22;2.40;;;2.20;;
735;SDS011;352;48.626;9.238;2023-03-09T13:30:52;3.10;;;2.13;;
735;SDS011;352;48.626;9.238;2023-03-09T13:33:23;2.30;;;1.83;;
735;SDS011;352;48.626;9.238;2023-03-09T13:35:54;2.67;;;2.00;;
735;SDS011;352;48.626;9.238;2023-03-09T13:38:24;3.57;;;2.13;;
735;SDS011;352;48.626;9.238;2023-03-09T13:40:54;3.00;;;2.20;;
735;SDS011;352;48.626;9.238;2023-03-09T13:43:24;2.73;;;1.77;;
735;SDS011;352;48.626;9.238;2023-03-09T13:45:55;5.03;;;2.00;;
735;SDS011;352;48.626;9.238;2023-03-09T13:48:28;4.73;;;2.00;;
735;SDS011;352;48.626;9.238;2023-03-09T13:50:57;2.27;;;1.67;;
735;SDS011;352;48.626;9.238;2023-03-09T13:53:24;2.27;;;1.63;;
735;SDS011;352;48.626;9.238;2023-03-09T13:55:58;2.40;;;2.20;;
735;SDS011;352;48.626;9.238;2023-03-09T13:58:27;2.50;;;2.03;;
735;SDS011;352;48.626;9.238;2023-03-09T14:00:56;2.30;;;2.00;;
735;SDS011;352;48.626;9.238;2023-03-09T14:03:24;3.33;;;2.20;;
735;SDS011;352;48.626;9.238;2023-03-09T14:05:58;4.47;;;2.30;;
735;SDS011;352;48.626;9.238;2023-03-09T14:08:28;2.77;;;2.33;;
735;SDS011;352;48.626;9.238;2023-03-09T14:11:02;2.20;;;2.10;;
735;SDS011;352;48.626;9.238;2023-03-09T14:13:30;3.43;;;2.20;;
735;SDS011;352;48.626;9.238;2023-03-09T14:15:59;2.30;;;2.10;;
735;SDS011;352;48.626;9.238;2023-03-09T14:18:33;2.20;;;2.00;;
735;SDS011;352;48.626;9.238;2023-03-09T14:21:04;3.10;;;2.00;;
735;SDS011;352;48.626;9.238;2023-03-09T14:23:43;3.47;;;2.10;;
735;SDS011;352;48.626;9.238;2023-03-09T14:26:11;2.40;;;2.20;;
735;SDS011;352;48.626;9.238;2023-03-09T14:28:38;4.00;;;2.80;;
735;SDS011;352;48.626;9.238;2023-03-09T14:31:11;2.90;;;2.30;;
735;SDS011;352;48.626;9.238;2023-03-09T14:33:53;2.30;;;2.10;;
735;SDS011;352;48.626;9.238;2023-03-09T14:36:22;2.27;;;2.07;;
735;SDS011;352;48.626;9.238;2023-03-09T14:38:50;3.37;;;2.30;;
735;SDS011;352;48.626;9.238;2023-03-09T14:41:20;2.77;;;2.30;;
735;SDS011;352;48.626;9.238;2023-03-09T14:43:48;3.93;;;2.20;;
735;SDS011;352;48.626;9.238;2023-03-09T14:46:15;4.43;;;2.20;;
735;SDS011;352;48.626;9.238;2023-03-09T14:48:46;4.80;;;2.03;;
735;SDS011;352;48.626;9.238;2023-03-09T14:51:14;5.03;;;2.30;;
735;SDS011;352;48.626;9.238;2023-03-09T14:53:52;2.87;;;1.80;;
735;SDS011;352;48.626;9.238;2023-03-09T14:56:24;3.90;;;2.30;;
735;SDS011;352;48.626;9.238;2023-03-09T14:58:52;1.83;;;1.73;;
735;SDS011;352;48.626;9.238;2023-03-09T15:01:19;3.50;;;2.40;;
735;SDS011;352;48.626;9.238;2023-03-09T15:03:47;3.37;;;2.03;;
735;SDS011;352;48.626;9.238;2023-03-09T15:06:14;2.20;;;2.00;;
735;SDS011;352;48.626;9.238;2023-03-09T15:08:41;2.07;;;1.80;;
735;SDS011;352;48.626;9.238;2023-03-09T15:11:09;3.97;;;2.47;;
735;SDS011;352;48.626;9.238;2023-03-09T15:13:36;2.50;;;2.30;;
735;SDS011;352;48.626;9.238;2023-03-09T15:16:04;3.40;;;2.40;;
735;SDS011;352;48.626;9.238;2023-03-09T15:18:31;3.73;;;2.37;;
735;SDS011;352;48.626;9.238;2023-03-09T15:20:58;5.07;;;2.57;;
735;SDS011;352;48.626;9.238;2023-03-09T15:23:24;4.37;;;2.80;;
735;SDS011;352;48.626;9.238;2023-03-09T15:25:51;5.63;;;2.67;;
735;SDS011;352;48.626;9.238;2023-03-09T15:28:20;4.13;;;2.60;;
735;SDS011;352;48.626;9.238;2023-03-09T15:30:47;4.50;;;2.60;;
735;SDS011;352;48.626;9.238;2023-03-09T15:33:13;3.40;;;2.40;;
735;SDS011;352;48.626;9.238;2023-03-09T15:35:40;3.13;;;2.50;;
735;SDS011;352;48.626;9.238;2023-03-09T15:38:07;3.73;;;2.80;;
735;SDS011;352;48.626;9.238;2023-03-09T15:40:34;3.97;;;2.67;;
735;SDS011;352;48.626;9.238;2023-03-09T15:43:01;5.10;;;2.73;;
735;SDS011;352;48.626;9.238;2023-03-09T15:45:29;5.33;;;3.33;;
735;SDS011;352;48.626;9.238;2023-03-09T15:47:56;3.70;;;2.20;;
735;SDS011;352;48.626;9.238;2023-03-09T15:50:22;6.90;;;2.90;;
735;SDS011;352;48.626;9.238;2023-03-09T15:52:49;3.17;;;2.30;;
735;SDS011;352;48.626;9.238;2023-03-09T15:55:16;4.83;;;2.10;;
735;SDS011;352;48.626;9.238;2023-03-09T15:57:43;5.60;;;2.47;;
735;SDS011;352;48.626;9.238;2023-03-09T16:00:12;5.93;;;2.40;;
735;SDS011;352;48.626;9.238;2023-03-09T16:02:41;6.30;;;2.63;;
735;SDS011;352;48.626;9.238;2023-03-09T16:05:08;4.70;;;2.30;;
735;SDS011;352;48.626;9.238;2023-03-09T16:07:36;4.77;;;2.47;;
735;SDS011;352;48.626;9.238;2023-03-09T16:10:03;6.43;;;2.33;;